Time;durP1;ratioP1;P1;durP2;ratioP2;P2;SDS_P1;SDS_P2;PMS_P1;PMS_P2;Temp;Humidity;BMP_temperature;BMP_pressure;BME280_temperature;BME280_humidity;BME280_pressure;Samples;Min_cycle;Max_cycle;Signal;HPM_P1;HPM_P2
2022/03/13 00:01:35;;;;;;;;;;;2.60;41.70;;;;;;5062890;28;19909;-69
2022/03/13 00:04:01;;;;;;;;;;;2.50;42.60;;;;;;5063263;28;19908;-69
2022/03/13 00:06:34;;;;;;;;;;;2.30;42.90;;;;;;5062826;28;20034;-70
2022/03/13 00:09:00;;;;;;;;;;;2.30;43.30;;;;;;5063332;28;19912;-69
2022/03/13 00:11:27;;;;;;;;;;;2.10;43.20;;;;;;5062809;28;19916;-69
2022/03/13 00:13:53;;;;;;;;;;;2.10;43.50;;;;;;5063070;28;20187;-69
2022/03/13 00:16:19;;;;;;;;;;;2.00;43.80;;;;;;5062878;28;19916;-69
2022/03/13 00:18:48;;;;;;;;;;;2.00;44.10;;;;;;5062671;28;19915;-69
2022/03/13 00:21:15;;;;;;;;;;;2.00;44.70;;;;;;5062401;28;19991;-69
2022/03/13 00:23:41;;;;;;;;;;;1.90;44.50;;;;;;5062548;28;19909;-69
2022/03/13 00:26:07;;;;;;;;;;;1.90;44.80;;;;;;5062713;28;20223;-69
2022/03/13 00:28:32;;;;;;;;;;;1.80;45.00;;;;;;5062510;28;19908;-69
2022/03/13 00:30:58;;;;;;;;;;;1.80;45.30;;;;;;5062377;28;19915;-69
2022/03/13 00:33:25;;;;;;;;;;;1.80;44.70;;;;;;5062462;28;20146;-69
2022/03/13 00:35:51;;;;;;;;;;;1.70;45.10;;;;;;5062230;28;19993;-69
2022/03/13 00:38:19;;;;;;;;;;;1.70;45.40;;;;;;5044426;28;19916;-69
2022/03/13 00:40:50;;;;;;;;;;;1.60;46.40;;;;;;5062377;28;19966;-69
2022/03/13 00:43:16;;;;;;;;;;;1.60;47.00;;;;;;5062449;28;19916;-69
2022/03/13 00:45:42;;;;;;;;;;;1.60;49.10;;;;;;5062275;28;20196;-70
2022/03/13 00:48:07;;;;;;;;;;;1.50;49.80;;;;;;5062362;28;19912;-69
2022/03/13 00:50:33;;;;;;;;;;;1.40;50.80;;;;;;5062126;28;20006;-69
2022/03/13 00:52:59;;;;;;;;;;;1.30;50.70;;;;;;5061918;28;19979;-68
2022/03/13 00:55:24;;;;;;;;;;;1.20;50.80;;;;;;5062102;28;19917;-69
2022/03/13 00:57:50;;;;;;;;;;;1.20;50.80;;;;;;5062021;28;19959;-69
2022/03/13 01:00:16;;;;;;;;;;;1.20;50.30;;;;;;5061999;28;19920;-69
2022/03/13 01:02:42;;;;;;;;;;;1.10;49.30;;;;;;5061837;28;19936;-69
2022/03/13 01:05:11;;;;;;;;;;;1.10;49.00;;;;;;5062355;28;20257;-69
2022/03/13 01:07:38;;;;;;;;;;;1.10;49.80;;;;;;5061855;28;19915;-69
2022/03/13 01:10:07;;;;;;;;;;;1.00;50.00;;;;;;5062100;28;19909;-69
2022/03/13 01:12:33;;;;;;;;;;;1.00;50.20;;;;;;5061768;28;19908;-69
2022/03/13 01:14:58;;;;;;;;;;;1.00;49.80;;;;;;5061965;28;19955;-68
2022/03/13 01:17:24;;;;;;;;;;;0.90;49.50;;;;;;5061616;28;19980;-68
2022/03/13 01:19:50;;;;;;;;;;;1.00;49.60;;;;;;5061940;28;19980;-69
2022/03/13 01:22:16;;;;;;;;;;;1.00;49.20;;;;;;5061373;28;19944;-67
2022/03/13 01:24:45;;;;;;;;;;;1.00;48.50;;;;;;5061798;28;19909;-68
2022/03/13 01:27:12;;;;;;;;;;;1.00;47.80;;;;;;5061709;28;20015;-68
2022/03/13 01:29:38;;;;;;;;;;;1.00;47.30;;;;;;5061720;28;19912;-67
2022/03/13 01:32:04;;;;;;;;;;;1.10;46.10;;;;;;5061477;28;19909;-68
2022/03/13 01:34:32;;;;;;;;;;;1.10;46.60;;;;;;5026703;28;19924;-68
2022/03/13 01:36:58;;;;;;;;;;;1.10;45.80;;;;;;5061180;28;19913;-67
2022/03/13 01:39:24;;;;;;;;;;;1.10;46.00;;;;;;5061456;28;19943;-68
2022/03/13 01:41:50;;;;;;;;;;;1.10;46.80;;;;;;5061175;28;19988;-67
2022/03/13 01:44:18;;;;;;;;;;;1.10;49.00;;;;;;5061362;28;19912;-68
2022/03/13 01:46:44;;;;;;;;;;;1.00;50.00;;;;;;5061370;28;20266;-69
2022/03/13 01:49:09;;;;;;;;;;;0.90;51.10;;;;;;5061122;28;19917;-69
2022/03/13 01:51:35;;;;;;;;;;;0.80;50.50;;;;;;5060569;28;19909;-69
2022/03/13 01:54:04;;;;;;;;;;;0.70;50.50;;;;;;5061235;28;20019;-69
2022/03/13 01:56:31;;;;;;;;;;;0.70;50.20;;;;;;5061281;28;20089;-69
2022/03/13 01:58:57;;;;;;;;;;;0.70;50.40;;;;;;5059915;28;19920;-70
2022/03/13 02:01:24;;;;;;;;;;;0.70;50.50;;;;;;5060968;28;19976;-69
2022/03/13 02:03:49;;;;;;;;;;;0.70;51.20;;;;;;5061219;28;19917;-69
2022/03/13 02:06:16;;;;;;;;;;;0.60;52.20;;;;;;5060840;28;19932;-69
2022/03/13 02:08:41;;;;;;;;;;;0.50;51.40;;;;;;5061053;28;19936;-70
2022/03/13 02:11:08;;;;;;;;;;;0.50;51.10;;;;;;5060872;28;19915;-69
2022/03/13 02:13:34;;;;;;;;;;;0.50;51.10;;;;;;5061152;28;19924;-70
2022/03/13 02:16:00;;;;;;;;;;;0.50;50.50;;;;;;5061026;28;19923;-70
2022/03/13 02:18:26;;;;;;;;;;;0.50;50.20;;;;;;5060963;28;19951;-69
2022/03/13 02:20:52;;;;;;;;;;;0.50;50.30;;;;;;5060853;28;20027;-70
2022/03/13 02:23:27;;;;;;;;;;;0.50;50.10;;;;;;5060743;28;19916;-70
2022/03/13 02:25:55;;;;;;;;;;;0.40;50.40;;;;;;5060986;28;19972;-69
2022/03/13 02:28:25;;;;;;;;;;;0.40;51.10;;;;;;5060899;28;19909;-69
2022/03/13 02:30:52;;;;;;;;;;;0.40;51.90;;;;;;5060697;28;19916;-69
2022/03/13 02:33:19;;;;;;;;;;;0.30;52.10;;;;;;5060919;28;19947;-69
2022/03/13 02:36:01;;;;;;;;;;;0.30;52.00;;;;;;5060103;28;19916;-68
2022/03/13 02:38:28;;;;;;;;;;;0.30;51.60;;;;;;5060644;28;19928;-68
2022/03/13 02:40:54;;;;;;;;;;;0.40;50.30;;;;;;5060451;28;19908;-69
2022/03/13 02:43:20;;;;;;;;;;;0.30;49.80;;;;;;5060730;28;19921;-69
2022/03/13 02:45:45;;;;;;;;;;;0.30;49.90;;;;;;5061644;28;20026;-69
2022/03/13 02:48:11;;;;;;;;;;;0.20;49.50;;;;;;5064313;28;19984;-69
2022/03/13 02:50:37;;;;;;;;;;;0.20;49.90;;;;;;5064164;28;20085;-69
2022/03/13 02:53:03;;;;;;;;;;;0.10;50.40;;;;;;5064033;28;19915;-69
2022/03/13 02:55:29;;;;;;;;;;;0.10;50.40;;;;;;5064209;28;19982;-69
2022/03/13 02:57:55;;;;;;;;;;;0.00;51.50;;;;;;5064157;28;20131;-69
2022/03/13 03:00:21;;;;;;;;;;;0.00;50.80;;;;;;5064177;28;19999;-69
2022/03/13 03:02:48;;;;;;;;;;;0.00;50.10;;;;;;5046054;28;20230;-69
2022/03/13 03:05:14;;;;;;;;;;;0.00;50.90;;;;;;5064231;28;19944;-69
2022/03/13 03:07:39;;;;;;;;;;;-0.10;50.40;;;;;;5063465;28;19973;-68
2022/03/13 03:10:05;;;;;;;;;;;-0.10;50.20;;;;;;5064199;28;19948;-68
2022/03/13 03:12:34;;;;;;;;;;;-0.10;49.50;;;;;;5046037;28;20180;-69
2022/03/13 03:15:00;;;;;;;;;;;-0.10;49.80;;;;;;5063976;28;20270;-69
2022/03/13 03:17:26;;;;;;;;;;;-0.20;49.80;;;;;;5063861;28;19958;-69
2022/03/13 03:19:52;;;;;;;;;;;-0.20;49.80;;;;;;5063892;28;20401;-69
2022/03/13 03:22:18;;;;;;;;;;;-0.10;49.90;;;;;;5063360;28;20188;-69
2022/03/13 03:24:44;;;;;;;;;;;-0.20;49.80;;;;;;5063825;28;19972;-68
2022/03/13 03:27:09;;;;;;;;;;;-0.10;49.80;;;;;;5063884;28;20149;-69
2022/03/13 03:29:35;;;;;;;;;;;-0.20;50.10;;;;;;5063756;28;20119;-69
2022/03/13 03:32:02;;;;;;;;;;;-0.20;49.70;;;;;;5063421;28;19909;-69
2022/03/13 03:34:28;;;;;;;;;;;-0.20;48.90;;;;;;5063468;28;20072;-69
2022/03/13 03:36:56;;;;;;;;;;;-0.20;48.70;;;;;;5062511;28;19913;-69
2022/03/13 03:39:23;;;;;;;;;;;-0.20;48.60;;;;;;5063469;28;19979;-69
2022/03/13 03:41:50;;;;;;;;;;;-0.20;48.10;;;;;;5063407;28;19962;-69
2022/03/13 03:44:16;;;;;;;;;;;-0.10;48.50;;;;;;5063497;28;19991;-69
2022/03/13 03:46:42;;;;;;;;;;;-0.10;48.50;;;;;;5063346;28;19908;-69
2022/03/13 03:49:08;;;;;;;;;;;-0.10;48.30;;;;;;5063068;28;19913;-68
2022/03/13 03:51:34;;;;;;;;;;;-0.20;48.10;;;;;;5062777;28;19917;-67
2022/03/13 03:54:00;;;;;;;;;;;-0.10;47.70;;;;;;5063213;28;19925;-67
2022/03/13 03:56:26;;;;;;;;;;;-0.10;47.90;;;;;;5063225;28;20107;-68
2022/03/13 03:58:52;;;;;;;;;;;0.00;47.00;;;;;;5062891;28;20100;-68
2022/03/13 04:01:18;;;;;;;;;;;0.00;46.30;;;;;;5063179;28;19916;-68
2022/03/13 04:03:44;;;;;;;;;;;0.00;46.80;;;;;;5063211;28;19909;-68
2022/03/13 04:06:09;;;;;;;;;;;0.00;46.70;;;;;;5062508;28;19932;-68
2022/03/13 04:08:35;;;;;;;;;;;0.00;46.30;;;;;;5062949;28;20208;-67
2022/03/13 04:11:01;;;;;;;;;;;0.00;46.10;;;;;;5062686;28;20195;-67
2022/03/13 04:13:28;;;;;;;;;;;0.10;45.70;;;;;;5062745;28;19958;-67
2022/03/13 04:15:57;;;;;;;;;;;0.20;45.50;;;;;;5062674;28;20014;-67
2022/03/13 04:18:22;;;;;;;;;;;0.10;45.70;;;;;;5062378;28;19931;-68
2022/03/13 04:20:48;;;;;;;;;;;0.10;46.10;;;;;;5061210;28;19980;-67
2022/03/13 04:23:14;;;;;;;;;;;0.10;45.30;;;;;;5062437;28;20031;-68
2022/03/13 04:25:39;;;;;;;;;;;0.00;45.40;;;;;;5062629;28;19916;-69
2022/03/13 04:28:08;;;;;;;;;;;0.10;45.40;;;;;;5062550;28;19955;-68
2022/03/13 04:30:34;;;;;;;;;;;0.10;47.30;;;;;;5062293;28;20042;-67
2022/03/13 04:33:01;;;;;;;;;;;0.00;54.00;;;;;;5062409;28;19920;-67
2022/03/13 04:35:27;;;;;;;;;;;-0.20;59.00;;;;;;5062441;28;19915;-68
2022/03/13 04:37:52;;;;;;;;;;;-0.20;59.30;;;;;;5059981;28;19948;-68
2022/03/13 04:40:18;;;;;;;;;;;-0.20;58.50;;;;;;5044525;28;20222;-69
2022/03/13 04:42:45;;;;;;;;;;;-0.30;55.20;;;;;;5044233;28;19909;-69
2022/03/13 04:45:12;;;;;;;;;;;-0.20;52.90;;;;;;5062192;28;19912;-68
2022/03/13 04:47:38;;;;;;;;;;;-0.20;52.80;;;;;;5062057;28;19909;-67
2022/03/13 04:50:04;;;;;;;;;;;-0.20;51.80;;;;;;5061970;28;20085;-67
2022/03/13 04:52:30;;;;;;;;;;;-0.30;52.90;;;;;;5060409;28;20150;-67
2022/03/13 04:54:55;;;;;;;;;;;-0.30;50.80;;;;;;5062067;28;19988;-66
2022/03/13 04:57:21;;;;;;;;;;;-0.20;52.20;;;;;;5061848;28;19917;-66
2022/03/13 04:59:47;;;;;;;;;;;-0.20;51.70;;;;;;5062321;28;20062;-66
2022/03/13 05:02:12;;;;;;;;;;;-0.30;51.60;;;;;;5061508;28;19942;-66
2022/03/13 05:04:38;;;;;;;;;;;-0.30;51.70;;;;;;5062281;28;19996;-67
2022/03/13 05:07:06;;;;;;;;;;;-0.30;51.80;;;;;;5060546;28;19909;-66
2022/03/13 05:09:32;;;;;;;;;;;-0.30;50.00;;;;;;5061131;28;19966;-66
2022/03/13 05:12:01;;;;;;;;;;;-0.20;48.50;;;;;;5061593;28;19916;-66
2022/03/13 05:14:26;;;;;;;;;;;-0.20;47.90;;;;;;5061887;28;20122;-67
2022/03/13 05:16:52;;;;;;;;;;;-0.10;47.60;;;;;;5061673;28;19952;-67
2022/03/13 05:19:18;;;;;;;;;;;-0.10;46.80;;;;;;5061685;28;19916;-67
2022/03/13 05:21:44;;;;;;;;;;;0.00;46.70;;;;;;5061332;28;19970;-67
2022/03/13 05:24:10;;;;;;;;;;;0.00;46.40;;;;;;5061739;28;19917;-69
2022/03/13 05:26:36;;;;;;;;;;;0.00;45.70;;;;;;5061791;28;19915;-67
2022/03/13 05:29:02;;;;;;;;;;;0.00;45.90;;;;;;5061672;28;20034;-67
2022/03/13 05:31:28;;;;;;;;;;;0.00;45.90;;;;;;5043449;28;20107;-67
2022/03/13 05:33:53;;;;;;;;;;;-0.10;46.40;;;;;;5061681;28;19919;-68
2022/03/13 05:36:19;;;;;;;;;;;-0.10;46.70;;;;;;5060822;28;20247;-67
2022/03/13 05:38:45;;;;;;;;;;;-0.10;46.30;;;;;;5061008;28;19921;-67
2022/03/13 05:41:11;;;;;;;;;;;0.00;45.40;;;;;;5061102;28;19916;-67
2022/03/13 05:43:40;;;;;;;;;;;0.00;44.90;;;;;;5061235;28;19940;-67
2022/03/13 05:46:06;;;;;;;;;;;0.00;45.00;;;;;;5061243;28;19909;-67
2022/03/13 05:48:32;;;;;;;;;;;-0.10;44.60;;;;;;5061181;28;19908;-68
2022/03/13 05:50:58;;;;;;;;;;;0.00;44.80;;;;;;5060943;28;19944;-68
2022/03/13 05:53:23;;;;;;;;;;;0.00;44.50;;;;;;5061028;28;19939;-68
2022/03/13 05:55:49;;;;;;;;;;;0.10;44.10;;;;;;5061426;28;19908;-68
2022/03/13 05:58:15;;;;;;;;;;;0.10;44.10;;;;;;5043362;28;19940;-68
2022/03/13 06:00:41;;;;;;;;;;;0.20;44.30;;;;;;5060564;28;19920;-68
2022/03/13 06:03:08;;;;;;;;;;;0.20;44.40;;;;;;5061160;28;19981;-68
2022/03/13 06:05:37;;;;;;;;;;;0.20;44.20;;;;;;5043599;28;19909;-67
2022/03/13 06:08:03;;;;;;;;;;;0.20;44.00;;;;;;5060724;28;19916;-67
2022/03/13 06:10:29;;;;;;;;;;;0.20;43.90;;;;;;5061028;28;19908;-68
2022/03/13 06:12:55;;;;;;;;;;;0.30;44.00;;;;;;5060831;28;19976;-67
2022/03/13 06:15:20;;;;;;;;;;;0.30;44.00;;;;;;5061295;28;19916;-68
2022/03/13 06:17:47;;;;;;;;;;;0.40;43.90;;;;;;5060304;28;20263;-67
2022/03/13 06:20:14;;;;;;;;;;;0.40;43.80;;;;;;5053445;28;19913;-66
2022/03/13 06:22:42;;;;;;;;;;;0.50;43.40;;;;;;5064263;28;19947;-67
2022/03/13 06:25:09;;;;;;;;;;;0.50;43.30;;;;;;5063607;28;19909;-67
2022/03/13 06:27:35;;;;;;;;;;;0.60;43.30;;;;;;5064605;28;20007;-67
2022/03/13 06:30:02;;;;;;;;;;;0.70;42.50;;;;;;5064849;28;19908;-68
2022/03/13 06:32:28;;;;;;;;;;;0.70;42.20;;;;;;5064234;28;19919;-67
2022/03/13 06:34:54;;;;;;;;;;;0.80;42.20;;;;;;5064767;28;19936;-67
2022/03/13 06:37:20;;;;;;;;;;;0.90;42.70;;;;;;5062112;28;19924;-66
2022/03/13 06:39:45;;;;;;;;;;;1.00;41.70;;;;;;5064172;28;20119;-67
2022/03/13 06:42:11;;;;;;;;;;;1.10;41.40;;;;;;5063945;28;19915;-66
2022/03/13 06:44:37;;;;;;;;;;;1.10;41.80;;;;;;5064938;28;20066;-67
2022/03/13 06:47:03;;;;;;;;;;;1.10;41.70;;;;;;5064669;28;19908;-67
2022/03/13 06:49:29;;;;;;;;;;;1.30;41.30;;;;;;5064511;28;19970;-67
2022/03/13 06:51:54;;;;;;;;;;;1.40;41.30;;;;;;5063503;28;19952;-66
2022/03/13 06:54:20;;;;;;;;;;;1.40;41.10;;;;;;5064109;28;19921;-68
2022/03/13 06:56:48;;;;;;;;;;;1.30;41.10;;;;;;5063856;28;20030;-68
2022/03/13 06:59:14;;;;;;;;;;;1.50;41.00;;;;;;5064179;28;19919;-68
2022/03/13 07:01:39;;;;;;;;;;;1.60;40.60;;;;;;5063907;28;19917;-68
2022/03/13 07:04:05;;;;;;;;;;;1.60;40.40;;;;;;5064295;28;20143;-68
2022/03/13 07:06:32;;;;;;;;;;;1.60;40.80;;;;;;5058740;28;20127;-69
2022/03/13 07:08:59;;;;;;;;;;;1.60;41.20;;;;;;5063679;28;19920;-69
2022/03/13 07:11:26;;;;;;;;;;;1.60;40.90;;;;;;5062404;28;19946;-69
2022/03/13 07:13:53;;;;;;;;;;;1.70;41.10;;;;;;5064056;28;19909;-68
2022/03/13 07:16:19;;;;;;;;;;;1.80;40.70;;;;;;5063609;28;19964;-68
2022/03/13 07:18:44;;;;;;;;;;;2.10;39.80;;;;;;5063601;28;19913;-68
2022/03/13 07:21:10;;;;;;;;;;;2.10;39.70;;;;;;5063282;28;19927;-67
2022/03/13 07:23:37;;;;;;;;;;;2.10;40.40;;;;;;5063446;28;19920;-67
2022/03/13 07:26:03;;;;;;;;;;;2.10;40.40;;;;;;5063391;28;19940;-67
2022/03/13 07:28:29;;;;;;;;;;;2.30;39.90;;;;;;5062252;28;19951;-68
2022/03/13 07:30:55;;;;;;;;;;;2.50;39.20;;;;;;5063483;28;19995;-68
2022/03/13 07:33:21;;;;;;;;;;;2.50;38.90;;;;;;5062563;28;20243;-68
2022/03/13 07:35:47;;;;;;;;;;;2.70;38.50;;;;;;5063439;28;19959;-69
2022/03/13 07:38:12;;;;;;;;;;;2.70;38.90;;;;;;5061767;28;20191;-68
2022/03/13 07:40:38;;;;;;;;;;;2.90;38.10;;;;;;5063020;28;20152;-68
2022/03/13 07:43:04;;;;;;;;;;;3.00;37.60;;;;;;5062878;28;19913;-68
2022/03/13 07:45:30;;;;;;;;;;;3.00;37.70;;;;;;5063445;28;19917;-69
2022/03/13 07:47:57;;;;;;;;;;;3.10;37.50;;;;;;5063091;28;19955;-69
2022/03/13 07:50:27;;;;;;;;;;;3.20;37.90;;;;;;5063332;28;19916;-68
2022/03/13 07:52:52;;;;;;;;;;;3.20;37.60;;;;;;5062677;28;19909;-68
2022/03/13 07:55:19;;;;;;;;;;;3.40;37.00;;;;;;5063052;28;19916;-68
2022/03/13 07:57:45;;;;;;;;;;;3.50;36.70;;;;;;5063059;28;19928;-68
2022/03/13 08:00:11;;;;;;;;;;;3.60;36.50;;;;;;5063119;28;19916;-68
2022/03/13 08:02:37;;;;;;;;;;;3.60;36.50;;;;;;5062684;28;20069;-68
2022/03/13 08:05:03;;;;;;;;;;;3.60;36.40;;;;;;5044602;28;19931;-67
2022/03/13 08:07:29;;;;;;;;;;;3.70;36.20;;;;;;5062474;28;19921;-67
2022/03/13 08:09:58;;;;;;;;;;;3.90;35.70;;;;;;5062457;28;19921;-67
2022/03/13 08:12:23;;;;;;;;;;;4.00;35.20;;;;;;5062021;28;19920;-66
2022/03/13 08:14:52;;;;;;;;;;;4.00;35.30;;;;;;5062456;28;20153;-67
2022/03/13 08:17:18;;;;;;;;;;;4.00;35.10;;;;;;5060463;28;19928;-67
2022/03/13 08:19:44;;;;;;;;;;;4.10;35.20;;;;;;5044691;28;19909;-66
2022/03/13 08:22:09;;;;;;;;;;;4.10;34.90;;;;;;5062854;28;19921;-66
2022/03/13 08:24:35;;;;;;;;;;;4.10;34.60;;;;;;5063612;28;19924;-66
2022/03/13 08:27:01;;;;;;;;;;;4.20;34.70;;;;;;5063732;28;20142;-66
2022/03/13 08:29:26;;;;;;;;;;;4.30;34.80;;;;;;5063502;28;19920;-69
2022/03/13 08:31:52;;;;;;;;;;;4.40;34.30;;;;;;5062703;28;19959;-69
2022/03/13 08:34:19;;;;;;;;;;;4.50;35.00;;;;;;5063352;28;19916;-65
2022/03/13 08:36:47;;;;;;;;;;;4.60;34.50;;;;;;5063283;28;19943;-68
2022/03/13 08:39:12;;;;;;;;;;;4.60;34.20;;;;;;5062260;28;19988;-68
2022/03/13 08:41:38;;;;;;;;;;;4.70;34.40;;;;;;5045472;28;20115;-70
2022/03/13 08:44:04;;;;;;;;;;;4.80;34.30;;;;;;5063090;28;19951;-71
2022/03/13 08:46:29;;;;;;;;;;;5.00;33.60;;;;;;5059135;28;20332;-71
2022/03/13 08:48:55;;;;;;;;;;;5.00;34.00;;;;;;5062800;28;19910;-68
2022/03/13 08:51:23;;;;;;;;;;;5.10;33.30;;;;;;5062616;28;19915;-68
2022/03/13 08:53:50;;;;;;;;;;;5.20;34.30;;;;;;5063101;28;19916;-69
2022/03/13 08:56:17;;;;;;;;;;;5.30;33.30;;;;;;5063118;28;20203;-68
2022/03/13 08:58:42;;;;;;;;;;;5.40;33.00;;;;;;5058646;28;19920;-68
2022/03/13 09:01:09;;;;;;;;;;;5.50;33.30;;;;;;5062727;28;19930;-67
2022/03/13 09:03:35;;;;;;;;;;;5.60;33.00;;;;;;5062656;28;19952;-67
2022/03/13 09:06:01;;;;;;;;;;;5.70;32.80;;;;;;5062683;28;19917;-67
2022/03/13 09:08:27;;;;;;;;;;;5.80;33.20;;;;;;5062589;28;19908;-68
2022/03/13 09:10:53;;;;;;;;;;;6.00;32.70;;;;;;5062720;28;20047;-67
2022/03/13 09:13:20;;;;;;;;;;;6.00;32.40;;;;;;5062824;28;19917;-67
2022/03/13 09:15:49;;;;;;;;;;;6.10;32.30;;;;;;5062800;28;19909;-68
2022/03/13 09:18:14;;;;;;;;;;;6.10;33.00;;;;;;5062666;28;19921;-68
2022/03/13 09:20:40;;;;;;;;;;;6.30;32.30;;;;;;5062446;28;19917;-68
2022/03/13 09:23:06;;;;;;;;;;;6.30;33.20;;;;;;5062442;28;19908;-68
2022/03/13 09:25:33;;;;;;;;;;;6.50;32.20;;;;;;5062627;28;19909;-67
2022/03/13 09:27:59;;;;;;;;;;;6.70;31.90;;;;;;5062712;28;19909;-67
2022/03/13 09:30:25;;;;;;;;;;;6.80;32.50;;;;;;5062477;28;19938;-67
2022/03/13 09:32:51;;;;;;;;;;;6.70;32.70;;;;;;5062425;28;19908;-67
2022/03/13 09:35:17;;;;;;;;;;;6.80;33.00;;;;;;5062581;28;20026;-67
2022/03/13 09:37:42;;;;;;;;;;;7.00;32.90;;;;;;5061896;28;19920;-67
2022/03/13 09:40:11;;;;;;;;;;;7.20;31.50;;;;;;5061397;28;19909;-68
2022/03/13 09:42:37;;;;;;;;;;;7.30;30.40;;;;;;5044984;28;19916;-68
2022/03/13 09:45:03;;;;;;;;;;;7.50;31.20;;;;;;5062378;28;20111;-67
2022/03/13 09:47:29;;;;;;;;;;;7.60;30.30;;;;;;5055871;28;19913;-67
2022/03/13 09:49:55;;;;;;;;;;;7.70;30.50;;;;;;5062219;28;19916;-67
2022/03/13 09:52:21;;;;;;;;;;;7.80;30.20;;;;;;5061994;28;20286;-67
2022/03/13 09:54:47;;;;;;;;;;;7.90;31.80;;;;;;5061953;28;19948;-67
2022/03/13 09:57:12;;;;;;;;;;;7.90;31.50;;;;;;5061563;28;19912;-67
2022/03/13 09:59:38;;;;;;;;;;;8.00;31.00;;;;;;5062200;28;19909;-64
2022/03/13 10:02:08;;;;;;;;;;;8.10;35.20;;;;;;5054341;28;19913;-64
2022/03/13 10:04:34;;;;;;;;;;;8.40;37.50;;;;;;5060132;28;19908;-68
2022/03/13 10:07:00;;;;;;;;;;;8.60;32.40;;;;;;5061853;28;19986;-67
2022/03/13 10:09:26;;;;;;;;;;;8.80;30.00;;;;;;5061901;28;20196;-65
2022/03/13 10:12:05;;;;;;;;;;;8.80;29.70;;;;;;5039494;28;19920;-68
2022/03/13 10:14:31;;;;;;;;;;;9.00;31.20;;;;;;5052480;28;20056;-67
2022/03/13 10:16:57;;;;;;;;;;;9.10;30.00;;;;;;5061599;28;19920;-66
2022/03/13 10:19:24;;;;;;;;;;;9.20;30.00;;;;;;5062092;28;20204;-65
2022/03/13 10:22:01;;;;;;;;;;;9.40;29.40;;;;;;5043886;28;19923;-66
2022/03/13 10:24:27;;;;;;;;;;;9.50;30.00;;;;;;5044053;28;19916;-67
2022/03/13 10:27:15;;;;;;;;;;;9.70;29.10;;;;;;5061953;28;19939;-68
2022/03/13 10:29:42;;;;;;;;;;;9.80;29.40;;;;;;5062130;28;19916;-67
2022/03/13 10:32:09;;;;;;;;;;;10.00;28.60;;;;;;5061619;28;19932;-69
2022/03/13 10:34:35;;;;;;;;;;;10.10;28.40;;;;;;5061847;28;19908;-69
2022/03/13 10:37:03;;;;;;;;;;;10.30;28.70;;;;;;5061559;28;20253;-65
2022/03/13 10:39:30;;;;;;;;;;;10.50;27.90;;;;;;5061507;28;19908;-68
2022/03/13 10:42:00;;;;;;;;;;;10.50;28.00;;;;;;5059841;28;19927;-66
2022/03/13 10:44:27;;;;;;;;;;;10.70;28.40;;;;;;5059084;28;19966;-66
2022/03/13 10:46:59;;;;;;;;;;;10.90;28.90;;;;;;5061541;28;19983;-63
2022/03/13 10:49:32;;;;;;;;;;;11.10;28.50;;;;;;5060549;28;19916;-67
2022/03/13 10:51:59;;;;;;;;;;;11.30;27.90;;;;;;5061773;28;19909;-67
2022/03/13 10:54:34;;;;;;;;;;;11.40;27.50;;;;;;5061335;28;19917;-67
2022/03/13 10:57:08;;;;;;;;;;;11.60;27.30;;;;;;5061690;28;19995;-67
2022/03/13 10:59:34;;;;;;;;;;;11.80;27.60;;;;;;5061308;28;19955;-67
2022/03/13 11:02:22;;;;;;;;;;;12.20;28.00;;;;;;5056981;28;19917;-64
2022/03/13 11:04:52;;;;;;;;;;;12.50;28.30;;;;;;5055322;28;19912;-64
2022/03/13 11:07:18;;;;;;;;;;;12.60;26.40;;;;;;5052548;28;19915;-65
2022/03/13 11:09:44;;;;;;;;;;;12.70;26.70;;;;;;5063656;28;20028;-65
2022/03/13 11:12:20;;;;;;;;;;;13.00;27.90;;;;;;5063525;28;19924;-64
2022/03/13 11:14:53;;;;;;;;;;;13.40;27.40;;;;;;5064842;28;19909;-64
2022/03/13 11:17:20;;;;;;;;;;;13.70;27.10;;;;;;5064642;28;20116;-64
2022/03/13 11:19:49;;;;;;;;;;;13.70;25.30;;;;;;5047208;28;19909;-64
2022/03/13 11:22:17;;;;;;;;;;;13.70;26.60;;;;;;5063886;28;20000;-64
2022/03/13 11:24:43;;;;;;;;;;;14.20;26.20;;;;;;5053309;28;19917;-67
2022/03/13 11:27:11;;;;;;;;;;;14.40;25.60;;;;;;5043348;28;19916;-69
2022/03/13 11:29:44;;;;;;;;;;;14.80;25.30;;;;;;5044573;28;19916;-69
2022/03/13 11:32:39;;;;;;;;;;;14.80;24.90;;;;;;5060636;28;20021;-70
2022/03/13 11:35:11;;;;;;;;;;;15.40;25.60;;;;;;5064480;28;19944;-66
2022/03/13 11:37:38;;;;;;;;;;;16.10;25.60;;;;;;5055209;28;19956;-66
2022/03/13 11:40:05;;;;;;;;;;;16.80;24.00;;;;;;5062327;28;20274;-65
2022/03/13 11:42:50;;;;;;;;;;;17.30;23.10;;;;;;5063403;28;20154;-67
2022/03/13 11:45:33;;;;;;;;;;;18.30;23.10;;;;;;5061139;28;19916;-67
2022/03/13 11:48:05;;;;;;;;;;;19.70;22.10;;;;;;5063807;28;19908;-66
2022/03/13 11:50:54;;;;;;;;;;;21.40;21.10;;;;;;5059605;28;19967;-67
2022/03/13 11:53:27;;;;;;;;;;;22.30;20.30;;;;;;5064263;28;19940;-67
2022/03/13 11:56:10;;;;;;;;;;;24.10;19.90;;;;;;5064280;28;19908;-67
2022/03/13 11:58:52;;;;;;;;;;;24.80;19.30;;;;;;5063888;28;19924;-67
2022/03/13 12:01:20;;;;;;;;;;;25.30;19.00;;;;;;5063868;28;19909;-68
2022/03/13 12:04:01;;;;;;;;;;;26.20;18.70;;;;;;5063945;28;19909;-67
2022/03/13 12:06:45;;;;;;;;;;;26.50;18.30;;;;;;5064093;28;19975;-68
2022/03/13 12:09:12;;;;;;;;;;;27.20;18.30;;;;;;5063735;28;19908;-69
2022/03/13 12:11:42;;;;;;;;;;;28.60;18.50;;;;;;5063849;28;19909;-66
2022/03/13 12:14:09;;;;;;;;;;;29.40;17.90;;;;;;5062805;28;19916;-66
2022/03/13 12:16:35;;;;;;;;;;;30.30;17.60;;;;;;5063259;28;19917;-67
2022/03/13 12:19:01;;;;;;;;;;;31.10;17.60;;;;;;5063464;28;19946;-66
2022/03/13 12:21:27;;;;;;;;;;;30.90;17.70;;;;;;5063866;28;19909;-66
2022/03/13 12:23:53;;;;;;;;;;;31.50;17.10;;;;;;5063557;28;19913;-67
2022/03/13 12:26:28;;;;;;;;;;;31.80;17.10;;;;;;5063711;28;19909;-67
2022/03/13 12:28:57;;;;;;;;;;;30.60;17.10;;;;;;5063957;28;20110;-66
2022/03/13 12:31:24;;;;;;;;;;;30.00;17.40;;;;;;5052642;28;19913;-67
2022/03/13 12:33:51;;;;;;;;;;;29.90;17.80;;;;;;5063454;28;19917;-67
2022/03/13 12:36:19;;;;;;;;;;;30.20;17.30;;;;;;5063049;28;19909;-67
2022/03/13 12:38:49;;;;;;;;;;;30.20;17.30;;;;;;5062269;28;19948;-66
2022/03/13 12:41:15;;;;;;;;;;;30.90;17.30;;;;;;5062659;28;19986;-66
2022/03/13 12:44:02;;;;;;;;;;;31.00;17.50;;;;;;5056957;28;20231;-67
2022/03/13 12:46:29;;;;;;;;;;;31.70;17.40;;;;;;5055009;28;19955;-67
2022/03/13 12:48:59;;;;;;;;;;;33.00;17.20;;;;;;5062734;28;20107;-67
2022/03/13 12:51:38;;;;;;;;;;;33.40;17.10;;;;;;5020415;28;19917;-67
2022/03/13 12:54:04;;;;;;;;;;;34.00;16.80;;;;;;5062588;28;19909;-67
2022/03/13 12:56:30;;;;;;;;;;;34.60;16.60;;;;;;5062833;28;19951;-67
2022/03/13 12:58:57;;;;;;;;;;;34.30;17.00;;;;;;5062892;28;19946;-67
2022/03/13 13:01:23;;;;;;;;;;;34.60;16.80;;;;;;5062289;28;19909;-67
2022/03/13 13:03:52;;;;;;;;;;;35.40;16.50;;;;;;5062969;28;19916;-66
2022/03/13 13:06:36;;;;;;;;;;;35.20;16.60;;;;;;5062930;28;19964;-67
2022/03/13 13:09:02;;;;;;;;;;;34.40;16.70;;;;;;5059595;28;19982;-67
2022/03/13 13:11:35;;;;;;;;;;;34.30;16.80;;;;;;5061657;28;20156;-67
2022/03/13 13:14:01;;;;;;;;;;;34.70;16.90;;;;;;5061929;28;19928;-68
2022/03/13 13:16:31;;;;;;;;;;;35.00;16.80;;;;;;5045062;28;19909;-68
2022/03/13 13:18:57;;;;;;;;;;;35.30;16.40;;;;;;5053830;28;19955;-67
2022/03/13 13:21:36;;;;;;;;;;;35.50;16.30;;;;;;5054230;28;19966;-68
2022/03/13 13:24:21;;;;;;;;;;;35.40;16.50;;;;;;5060106;28;20081;-68
2022/03/13 13:26:46;;;;;;;;;;;35.80;16.50;;;;;;5054405;28;19920;-68
2022/03/13 13:29:12;;;;;;;;;;;34.90;16.50;;;;;;5059525;28;19917;-67
2022/03/13 13:31:38;;;;;;;;;;;33.90;16.90;;;;;;5041990;28;20293;-68
2022/03/13 13:34:16;;;;;;;;;;;34.10;16.70;;;;;;5060569;28;19926;-68
2022/03/13 13:36:42;;;;;;;;;;;33.90;16.70;;;;;;5058324;28;20112;-68
2022/03/13 13:39:08;;;;;;;;;;;34.20;16.70;;;;;;5061228;28;19913;-68
2022/03/13 13:41:34;;;;;;;;;;;34.10;16.60;;;;;;5062170;28;19940;-68
2022/03/13 13:44:00;;;;;;;;;;;33.70;16.90;;;;;;5062531;28;19917;-68
2022/03/13 13:46:30;;;;;;;;;;;33.70;16.80;;;;;;5062466;28;19968;-68
2022/03/13 13:48:55;;;;;;;;;;;34.60;16.80;;;;;;5062274;28;20107;-67
2022/03/13 13:51:27;;;;;;;;;;;34.60;16.70;;;;;;5057800;28;19948;-67
2022/03/13 13:53:54;;;;;;;;;;;35.20;16.70;;;;;;5052426;28;19916;-68
2022/03/13 13:56:27;;;;;;;;;;;36.00;16.50;;;;;;5042584;28;19939;-67
2022/03/13 13:58:53;;;;;;;;;;;35.60;16.60;;;;;;5042015;28;19913;-68
2022/03/13 14:01:31;;;;;;;;;;;35.70;16.50;;;;;;5040940;28;19940;-68
2022/03/13 14:03:57;;;;;;;;;;;35.40;16.50;;;;;;5042285;28;19924;-67
2022/03/13 14:06:34;;;;;;;;;;;35.00;16.60;;;;;;5042149;28;19909;-68
2022/03/13 14:09:00;;;;;;;;;;;33.90;16.80;;;;;;5042205;28;19984;-68
2022/03/13 14:11:26;;;;;;;;;;;34.30;16.70;;;;;;5041906;28;19909;-69
2022/03/13 14:13:51;;;;;;;;;;;33.80;16.70;;;;;;5041945;28;19909;-68
2022/03/13 14:16:18;;;;;;;;;;;33.80;16.50;;;;;;5042633;28;19913;-68
2022/03/13 14:18:45;;;;;;;;;;;33.40;16.80;;;;;;5056275;28;19917;-67
2022/03/13 14:21:12;;;;;;;;;;;32.20;17.00;;;;;;5061061;28;19909;-67
2022/03/13 14:23:37;;;;;;;;;;;31.70;17.20;;;;;;5043095;28;19923;-67
2022/03/13 14:26:03;;;;;;;;;;;31.60;17.40;;;;;;5060896;28;19913;-67
2022/03/13 14:28:29;;;;;;;;;;;31.50;17.20;;;;;;5060792;28;19979;-74